createdAt,value
2018-12-13T00:00:31.534Z,102459.76
2018-12-13T00:03:01.127Z,102455.67
2018-12-13T00:05:32.975Z,102456.16
2018-12-13T00:08:02.721Z,102449.45
2018-12-13T00:10:33.124Z,102448.91
2018-12-13T00:13:04.251Z,102452.36
2018-12-13T00:15:33.598Z,102455.84
2018-12-13T00:18:03.374Z,102447.50
2018-12-13T00:20:34.036Z,102453.20
2018-12-13T00:23:03.430Z,102450.91
2018-12-13T00:25:32.723Z,102448.37
2018-12-13T00:28:02.239Z,102441.39
2018-12-13T00:30:31.850Z,102438.48
2018-12-13T00:33:02.432Z,102439.33
2018-12-13T00:35:31.930Z,102442.63
2018-12-13T00:38:02.214Z,102439.51
2018-12-13T00:40:31.845Z,102446.59
2018-12-13T00:43:01.625Z,102442.21
2018-12-13T00:45:30.874Z,102442.58
2018-12-13T00:48:00.123Z,102440.70
2018-12-13T00:50:29.850Z,102447.44
2018-12-13T00:52:59.123Z,102448.45
2018-12-13T00:55:28.781Z,102452.95
2018-12-13T00:57:58.321Z,102443.70
2018-12-13T01:00:27.714Z,102451.58
2018-12-13T01:02:58.105Z,102452.62
2018-12-13T01:05:27.664Z,102450.03
2018-12-13T01:07:57.250Z,102445.84
2018-12-13T01:10:26.672Z,102440.13
2018-12-13T01:12:57.096Z,102447.98
2018-12-13T01:15:31.069Z,102449.86
2018-12-13T01:18:01.332Z,102450.15
2018-12-13T01:20:31.318Z,102442.66
2018-12-13T01:23:00.557Z,102444.88
2018-12-13T01:25:29.847Z,102440.92
2018-12-13T01:27:59.352Z,102433.44
2018-12-13T01:30:28.646Z,102438.28
2018-12-13T01:32:58.107Z,102436.53
2018-12-13T01:35:27.439Z,102435.69
2018-12-13T01:37:56.974Z,102434.88
2018-12-13T01:40:26.405Z,102434.63
2018-12-13T01:42:56.277Z,102437.65
2018-12-13T01:45:25.558Z,102435.85
2018-12-13T01:47:56.165Z,102435.48
2018-12-13T01:50:25.573Z,102438.81
2018-12-13T01:52:55.587Z,102434.84
2018-12-13T01:55:25.036Z,102438.41
2018-12-13T01:57:54.303Z,102439.84
2018-12-13T02:00:23.625Z,102425.73
2018-12-13T02:02:52.882Z,102424.13
2018-12-13T02:05:22.195Z,102427.28
2018-12-13T02:07:51.494Z,102428.14
2018-12-13T02:10:20.843Z,102426.27
2018-12-13T02:12:50.114Z,102431.70
2018-12-13T02:15:19.489Z,102423.41
2018-12-13T02:17:48.859Z,102418.07
2018-12-13T02:20:19.123Z,102418.09
2018-12-13T02:22:48.516Z,102427.34
2018-12-13T02:25:20.011Z,102425.99
2018-12-13T02:27:49.254Z,102416.20
2018-12-13T02:30:21.778Z,102416.67
2018-12-13T02:32:51.106Z,102424.02
2018-12-13T02:35:20.415Z,102419.97
2018-12-13T02:37:50.469Z,102420.92
2018-12-13T02:40:19.763Z,102412.95
2018-12-13T02:42:51.333Z,102420.31
2018-12-13T02:45:20.631Z,102410.53
2018-12-13T02:47:50.242Z,102417.11
2018-12-13T02:50:20.189Z,102421.38
2018-12-13T02:52:49.813Z,102414.89
2018-12-13T02:55:19.131Z,102406.96
2018-12-13T02:57:48.440Z,102410.03
2018-12-13T03:00:18.258Z,102406.37
2018-12-13T03:02:47.909Z,102407.24
2018-12-13T03:05:17.473Z,102410.03
2018-12-13T03:07:46.705Z,102404.77
2018-12-13T03:10:15.937Z,102401.14
2018-12-13T03:12:45.327Z,102402.02
2018-12-13T03:15:15.568Z,102402.32
2018-12-13T03:17:45.039Z,102409.27
2018-12-13T03:20:14.365Z,102400.50
2018-12-13T03:22:43.640Z,102404.55
2018-12-13T03:25:12.911Z,102403.33
2018-12-13T03:27:42.327Z,102399.81
2018-12-13T03:30:11.704Z,102405.86
2018-12-13T03:32:41.533Z,102402.25
2018-12-13T03:35:10.840Z,102393.45
2018-12-13T03:37:40.174Z,102395.67
2018-12-13T03:40:09.432Z,102390.77
2018-12-13T03:42:38.682Z,102394.51
2018-12-13T03:45:08.097Z,102384.84
2018-12-13T03:47:37.461Z,102381.72
2018-12-13T03:50:07.043Z,102383.94
2018-12-13T03:52:36.309Z,102378.69
2018-12-13T03:55:06.140Z,102379.56
2018-12-13T03:57:35.813Z,102369.97
2018-12-13T04:00:06.814Z,102370.45
2018-12-13T04:02:36.406Z,102374.41
2018-12-13T04:05:05.886Z,102373.98
2018-12-13T04:07:35.373Z,102364.69
2018-12-13T04:10:04.923Z,102366.09
2018-12-13T04:12:35.209Z,102368.92
2018-12-13T04:15:05.273Z,102372.80
2018-12-13T04:17:34.519Z,102375.00
2018-12-13T04:20:03.990Z,102371.03
2018-12-13T04:22:33.267Z,102377.73
2018-12-13T04:25:02.677Z,102376.49
2018-12-13T04:27:32.329Z,102387.52
2018-12-13T04:30:01.688Z,102385.42
2018-12-13T04:32:31.430Z,102390.72
2018-12-13T04:35:00.881Z,102382.90
2018-12-13T04:37:35.286Z,102382.13
2018-12-13T04:40:01.740Z,102381.34
2018-12-13T04:42:30.975Z,102373.92
2018-12-13T04:45:00.499Z,102374.37
2018-12-13T04:47:29.870Z,102369.02
2018-12-13T04:49:59.364Z,102367.27
2018-12-13T04:52:28.656Z,102352.81
2018-12-13T04:54:58.131Z,102342.25
2018-12-13T04:57:27.464Z,102333.82
2018-12-13T04:59:57.484Z,102338.20
2018-12-13T05:02:26.680Z,102350.14
2018-12-13T05:04:56.097Z,102346.28
2018-12-13T05:07:25.389Z,102349.41
2018-12-13T05:09:54.955Z,102344.19
2018-12-13T05:12:24.232Z,102339.23
2018-12-13T05:14:53.885Z,102336.53
2018-12-13T05:17:23.637Z,102337.14
2018-12-13T05:19:53.003Z,102337.66
2018-12-13T05:22:22.315Z,102333.27
2018-12-13T05:24:51.920Z,102335.40
2018-12-13T05:27:21.417Z,102322.13
2018-12-13T05:29:50.797Z,102319.55
2018-12-13T05:32:20.564Z,102320.89
2018-12-13T05:34:49.985Z,102320.39
2018-12-13T05:37:19.272Z,102329.31
2018-12-13T05:39:49.687Z,102328.42
2018-12-13T05:42:19.030Z,102317.45
2018-12-13T05:44:48.288Z,102316.71
2018-12-13T05:47:17.806Z,102314.27
2018-12-13T05:49:47.963Z,102320.33
2018-12-13T05:52:17.876Z,102314.61
2018-12-13T05:54:47.134Z,102315.57
2018-12-13T05:57:16.515Z,102310.42
2018-12-13T05:59:47.205Z,102310.03
2018-12-13T06:02:16.980Z,102310.00
2018-12-13T06:04:46.278Z,102308.29
2018-12-13T06:07:15.759Z,102302.15
2018-12-13T06:09:46.114Z,102303.83
2018-12-13T06:12:15.871Z,102317.16
2018-12-13T06:14:46.555Z,102321.68
2018-12-13T06:17:17.907Z,102319.05
2018-12-13T06:19:47.575Z,102319.13
2018-12-13T06:22:16.811Z,102313.30
2018-12-13T06:24:47.560Z,102313.61
2018-12-13T06:27:16.874Z,102310.75
2018-12-13T06:29:48.950Z,102315.59
2018-12-13T06:32:18.546Z,102314.25
2018-12-13T06:34:48.327Z,102315.05
2018-12-13T06:37:17.626Z,102310.80
2018-12-13T06:39:53.979Z,102309.91
2018-12-13T06:42:24.463Z,102311.18
2018-12-13T06:44:53.902Z,102310.88
2018-12-13T06:47:24.160Z,102309.33
2018-12-13T06:49:53.608Z,102305.47
2018-12-13T06:52:23.083Z,102302.38
2018-12-13T06:54:53.838Z,102309.30
2018-12-13T06:57:23.165Z,102310.53
2018-12-13T06:59:52.448Z,102308.69
2018-12-13T07:02:22.763Z,102314.51
2018-12-13T07:04:51.981Z,102321.75
2018-12-13T07:07:22.754Z,102314.31
2018-12-13T07:09:52.156Z,102310.89
2018-12-13T07:12:21.867Z,102309.59
2018-12-13T07:14:51.096Z,102301.81
2018-12-13T07:17:20.832Z,102308.31
2018-12-13T07:19:50.437Z,102307.79
2018-12-13T07:22:19.788Z,102306.85
2018-12-13T07:24:49.346Z,102308.17
2018-12-13T07:27:18.946Z,102308.13
2018-12-13T07:29:48.486Z,102309.69
2018-12-13T07:32:17.995Z,102306.62
2018-12-13T07:34:48.556Z,102304.78
2018-12-13T07:37:20.241Z,102300.31
2018-12-13T07:39:49.711Z,102303.81
2018-12-13T07:42:19.301Z,102307.23
2018-12-13T07:44:48.655Z,102305.91
2018-12-13T07:47:17.930Z,102303.26
2018-12-13T07:49:47.186Z,102299.19
2018-12-13T07:52:16.699Z,102302.56
2018-12-13T07:54:46.215Z,102295.95
2018-12-13T07:57:16.876Z,102306.40
2018-12-13T07:59:46.726Z,102299.80
2018-12-13T08:02:16.350Z,102292.52
2018-12-13T08:04:45.902Z,102290.69
2018-12-13T08:07:16.970Z,102297.90
2018-12-13T08:09:48.064Z,102293.06
2018-12-13T08:12:17.296Z,102289.68
2018-12-13T08:14:46.621Z,102288.57
2018-12-13T08:17:15.925Z,102287.06
2018-12-13T08:19:45.515Z,102286.14
2018-12-13T08:22:15.436Z,102287.81
2018-12-13T08:24:44.925Z,102279.33
2018-12-13T08:27:14.331Z,102285.23
2018-12-13T08:29:43.870Z,102280.25
2018-12-13T08:32:13.233Z,102280.59
2018-12-13T08:34:42.739Z,102271.86
2018-12-13T08:37:12.147Z,102272.96
2018-12-13T08:39:42.499Z,102270.52
2018-12-13T08:42:11.849Z,102267.28
2018-12-13T08:46:10.666Z,102274.58
2018-12-13T08:48:40.185Z,102277.91
2018-12-13T08:51:09.417Z,102275.99
2018-12-13T08:53:39.348Z,102268.97
2018-12-13T08:56:08.689Z,102270.37
2018-12-13T08:58:38.232Z,102274.48
2018-12-13T09:01:07.800Z,102278.45
2018-12-13T09:03:37.147Z,102267.66
2018-12-13T09:06:06.801Z,102266.98
2018-12-13T09:08:36.505Z,102264.25
2018-12-13T09:11:07.758Z,102263.41
2018-12-13T09:13:37.162Z,102265.12
2018-12-13T09:16:06.924Z,102263.66
2018-12-13T09:18:36.793Z,102263.70
2018-12-13T09:21:06.690Z,102263.47
2018-12-13T09:23:37.052Z,102255.23
2018-12-13T09:26:06.650Z,102254.59
2018-12-13T09:28:36.762Z,102261.42
2018-12-13T09:31:06.250Z,102262.52
2018-12-13T09:33:35.661Z,102259.81
2018-12-13T09:36:05.172Z,102258.64
2018-12-13T09:38:39.697Z,102258.55
2018-12-13T09:41:05.831Z,102252.30
2018-12-13T09:43:36.437Z,102251.05
2018-12-13T09:46:06.416Z,102243.54
2018-12-13T09:48:35.752Z,102241.28
2018-12-13T09:51:05.342Z,102251.53
2018-12-13T09:53:34.711Z,102253.78
2018-12-13T09:56:05.345Z,102248.16
2018-12-13T09:58:34.887Z,102251.70
2018-12-13T10:01:04.162Z,102233.06
2018-12-13T10:03:34.100Z,102238.25
2018-12-13T10:06:03.723Z,102242.86
2018-12-13T10:08:33.522Z,102233.36
2018-12-13T10:11:03.045Z,102227.43
2018-12-13T10:13:32.880Z,102233.91
2018-12-13T10:16:04.167Z,102232.12
2018-12-13T10:18:33.592Z,102228.09
2018-12-13T10:21:03.265Z,102228.59
2018-12-13T10:23:32.873Z,102226.30
2018-12-13T10:26:02.566Z,102219.86
2018-12-13T10:28:32.167Z,102220.45
2018-12-13T10:31:02.816Z,102228.66
2018-12-13T10:33:32.418Z,102223.05
2018-12-13T10:36:03.768Z,102219.77
2018-12-13T10:38:33.328Z,102218.06
2018-12-13T10:41:03.298Z,102221.81
2018-12-13T10:43:33.457Z,102216.59
2018-12-13T10:46:04.229Z,102219.09
2018-12-13T10:48:33.493Z,102219.34
2018-12-13T10:51:04.163Z,102222.48
2018-12-13T10:53:33.624Z,102224.26
2018-12-13T10:56:04.419Z,102223.35
2018-12-13T10:58:33.739Z,102213.95
2018-12-13T11:01:08.721Z,102219.54
2018-12-13T11:03:38.268Z,102220.94
2018-12-13T11:06:07.962Z,102221.01
2018-12-13T11:08:37.651Z,102216.84
2018-12-13T11:11:06.945Z,102217.17
2018-12-13T11:13:36.210Z,102221.59
2018-12-13T11:16:06.023Z,102215.08
2018-12-13T11:18:35.372Z,102220.14
2018-12-13T11:21:04.706Z,102217.72
2018-12-13T11:23:34.447Z,102208.50
2018-12-13T11:26:04.108Z,102213.61
2018-12-13T11:28:44.800Z,102205.52
2018-12-13T11:31:15.435Z,102199.51
2018-12-13T11:33:45.630Z,102201.66
2018-12-13T11:36:15.188Z,102198.90
2018-12-13T11:38:44.831Z,102197.91
2018-12-13T11:41:14.551Z,102195.46
2018-12-13T11:43:43.954Z,102198.94
2018-12-13T11:46:14.215Z,102192.53
2018-12-13T11:48:43.666Z,102190.27
2018-12-13T11:51:13.514Z,102195.02
2018-12-13T11:53:43.490Z,102197.33
2018-12-13T11:56:13.153Z,102193.86
2018-12-13T11:58:42.438Z,102188.80
2018-12-13T12:01:11.827Z,102184.30
2018-12-13T12:03:42.308Z,102186.95
2018-12-13T12:06:11.862Z,102187.04
2018-12-13T12:08:41.174Z,102183.94
2018-12-13T12:11:10.644Z,102183.69
2018-12-13T12:13:40.431Z,102188.19
2018-12-13T12:16:10.156Z,102187.95
2018-12-13T12:18:40.073Z,102181.41
2018-12-13T12:21:09.798Z,102188.86
2018-12-13T12:23:40.185Z,102188.16
2018-12-13T12:26:11.448Z,102185.45
2018-12-13T12:28:43.481Z,102193.84
2018-12-13T12:31:14.753Z,102189.20
2018-12-13T12:33:44.682Z,102188.38
2018-12-13T12:36:14.915Z,102193.66
2018-12-13T12:38:45.290Z,102179.95
2018-12-13T12:41:14.579Z,102179.53
2018-12-13T12:43:44.500Z,102173.56
2018-12-13T12:46:14.101Z,102178.05
2018-12-13T12:48:44.543Z,102185.49
2018-12-13T12:51:14.191Z,102173.05
2018-12-13T12:53:46.135Z,102176.83
2018-12-13T12:56:15.496Z,102170.58
2018-12-13T12:58:45.684Z,102170.54
2018-12-13T13:01:15.255Z,102159.01
2018-12-13T13:03:44.867Z,102159.88
2018-12-13T13:06:15.508Z,102166.70
2018-12-13T13:08:46.813Z,102159.37
2018-12-13T13:11:16.355Z,102162.02
2018-12-13T13:13:46.594Z,102159.95
2018-12-13T13:16:16.988Z,102158.41
2018-12-13T13:18:48.079Z,102164.39
2018-12-13T13:21:18.057Z,102165.03
2018-12-13T13:23:47.347Z,102167.19
2018-12-13T13:26:17.079Z,102163.82
2018-12-13T13:28:46.489Z,102160.88
2018-12-13T13:31:16.223Z,102164.95
2018-12-13T13:33:46.833Z,102158.61
2018-12-13T13:36:16.312Z,102157.09
2018-12-13T13:38:45.607Z,102159.66
2018-12-13T13:41:15.006Z,102153.44
2018-12-13T13:43:44.612Z,102159.06
2018-12-13T13:46:14.200Z,102161.70
2018-12-13T13:48:44.892Z,102154.16
2018-12-13T13:51:15.339Z,102157.52
2018-12-13T13:53:44.870Z,102160.05
2018-12-13T13:56:15.646Z,102154.38
2018-12-13T13:58:44.979Z,102161.78
2018-12-13T14:01:14.257Z,102152.91
2018-12-13T14:03:43.601Z,102157.47
2018-12-13T14:06:14.632Z,102155.73
2018-12-13T14:08:47.349Z,102152.11
2018-12-13T14:11:17.301Z,102153.39
2018-12-13T14:13:46.935Z,102151.70
2018-12-13T14:16:17.310Z,102149.58
2018-12-13T14:18:46.707Z,102147.36
2018-12-13T14:21:16.199Z,102143.05
2018-12-13T14:23:45.623Z,102154.52
2018-12-13T14:26:15.799Z,102148.44
2018-12-13T14:28:45.697Z,102136.44
2018-12-13T14:31:15.453Z,102152.86
2018-12-13T14:33:45.324Z,102145.62
2018-12-13T14:36:16.834Z,102152.11
2018-12-13T14:38:48.203Z,102151.20
2018-12-13T14:41:17.790Z,102144.75
2018-12-13T14:43:47.879Z,102141.95
2018-12-13T14:46:17.323Z,102144.14
2018-12-13T14:48:46.899Z,102143.62
2018-12-13T14:51:16.815Z,102146.78
2018-12-13T14:56:33.776Z,102143.47
2018-12-13T14:59:03.727Z,102144.72
2018-12-13T15:01:34.366Z,102141.95
2018-12-13T15:04:11.177Z,102146.14
2018-12-13T15:06:41.859Z,102147.39
2018-12-13T15:09:19.994Z,102150.79
2018-12-13T15:11:55.130Z,102152.19
2018-12-13T15:14:29.471Z,102154.72
2018-12-13T15:17:03.453Z,102153.89
2018-12-13T15:19:40.040Z,102155.70
2018-12-13T15:22:22.146Z,102156.98
2018-12-13T15:24:52.877Z,102159.02
2018-12-13T15:27:24.744Z,102157.44
2018-12-13T15:29:59.197Z,102160.11
2018-12-13T15:32:28.690Z,102161.44
2018-12-13T15:35:02.630Z,102155.17
2018-12-13T15:37:39.289Z,102152.68
2018-12-13T15:40:12.917Z,102150.03
2018-12-13T15:42:55.533Z,102147.69
2018-12-13T15:45:28.096Z,102147.62
2018-12-13T15:48:09.390Z,102145.31
2018-12-13T15:50:50.482Z,102146.14
2018-12-13T15:53:20.336Z,102143.17
2018-12-13T15:55:54.835Z,102139.39
2018-12-13T15:58:27.781Z,102147.12
2018-12-13T16:01:03.417Z,102136.74
2018-12-13T16:03:34.114Z,102144.52
2018-12-13T16:06:08.263Z,102146.56
2018-12-13T16:08:41.714Z,102146.11
2018-12-13T16:11:13.755Z,102149.70
2018-12-13T16:13:44.655Z,102159.86
2018-12-13T16:16:20.875Z,102155.42
2018-12-13T16:18:54.827Z,102152.16
2018-12-13T16:21:34.920Z,102146.01
2018-12-13T16:24:05.804Z,102150.60
2018-12-13T16:26:41.817Z,102154.14
2018-12-13T16:29:12.376Z,102154.56
2018-12-13T16:31:44.131Z,102152.58
2018-12-13T16:34:15.025Z,102145.48
2018-12-13T16:36:44.957Z,102147.20
2018-12-13T16:39:18.577Z,102146.60
2018-12-13T16:41:52.531Z,102146.91
2018-12-13T16:44:29.050Z,102153.91
2018-12-13T16:47:00.513Z,102157.83
2018-12-13T16:49:31.617Z,102147.12
2018-12-13T16:52:01.881Z,102147.12
2018-12-13T16:54:54.297Z,102149.00
2018-12-13T16:57:24.999Z,102150.39
2018-12-13T16:59:56.298Z,102148.20
2018-12-13T17:02:27.312Z,102147.72
2018-12-13T17:05:03.187Z,102143.41
2018-12-13T17:07:32.724Z,102153.87
2018-12-13T17:10:07.498Z,102160.58
2018-12-13T17:12:36.986Z,102155.36
2018-12-13T17:15:07.747Z,102150.98
2018-12-13T17:17:39.024Z,102159.33
2018-12-13T17:20:09.830Z,102166.63
2018-12-13T17:22:39.259Z,102165.93
2018-12-13T17:25:15.469Z,102169.58
2018-12-13T17:27:44.974Z,102167.35
2018-12-13T17:30:14.582Z,102168.67
2018-12-13T17:32:46.424Z,102172.28
2018-12-13T17:35:17.074Z,102169.39
2018-12-13T17:37:46.630Z,102179.19
2018-12-13T17:40:22.873Z,102163.79
2018-12-13T17:42:49.018Z,102175.05
2018-12-13T17:45:19.952Z,102173.38
2018-12-13T17:47:49.405Z,102174.73
2018-12-13T17:50:18.768Z,102177.79
2018-12-13T17:52:49.482Z,102178.59
2018-12-13T17:55:21.331Z,102175.41
2018-12-13T17:57:51.820Z,102181.30
2018-12-13T18:00:21.194Z,102178.05
2018-12-13T18:02:51.712Z,102175.73
2018-12-13T18:05:21.164Z,102181.92
2018-12-13T18:07:50.716Z,102187.97
2018-12-13T18:10:20.357Z,102174.32
2018-12-13T18:12:50.327Z,102186.78
2018-12-13T18:15:19.907Z,102183.08
2018-12-13T18:17:51.236Z,102173.42
2018-12-13T18:20:21.786Z,102167.10
2018-12-13T18:22:51.272Z,102163.66
2018-12-13T18:25:21.719Z,102167.52
2018-12-13T18:27:50.967Z,102160.72
2018-12-13T18:30:20.438Z,102164.23
2018-12-13T18:32:50.893Z,102169.16
2018-12-13T18:35:20.592Z,102158.89
2018-12-13T18:37:50.034Z,102161.11
2018-12-13T18:40:19.490Z,102162.82
2018-12-13T18:42:49.813Z,102164.20
2018-12-13T18:45:20.771Z,102166.81
2018-12-13T18:47:51.346Z,102159.66
2018-12-13T18:50:22.607Z,102165.84
2018-12-13T18:52:51.994Z,102162.20
2018-12-13T18:55:21.595Z,102163.81
2018-12-13T18:57:51.102Z,102160.72
2018-12-13T19:00:20.570Z,102159.26
2018-12-13T19:02:50.818Z,102162.03
2018-12-13T19:05:20.353Z,102167.56
2018-12-13T19:07:50.216Z,102161.38
2018-12-13T19:10:20.578Z,102162.45
2018-12-13T19:12:50.559Z,102163.88
2018-12-13T19:15:20.065Z,102162.10
2018-12-13T19:17:49.674Z,102164.33
2018-12-13T19:20:19.437Z,102160.65
2018-12-13T19:22:49.504Z,102157.55
2018-12-13T19:25:19.306Z,102159.05
2018-12-13T19:27:48.673Z,102159.39
2018-12-13T19:30:19.360Z,102166.13
2018-12-13T19:32:48.757Z,102164.33
2018-12-13T19:35:19.573Z,102170.71
2018-12-13T19:37:50.735Z,102172.71
2018-12-13T19:40:21.409Z,102169.33
2018-12-13T19:42:51.614Z,102166.72
2018-12-13T19:45:21.750Z,102163.14
2018-12-13T19:47:52.881Z,102168.13
2018-12-13T19:50:23.127Z,102168.19
2018-12-13T19:52:53.890Z,102172.78
2018-12-13T19:55:24.946Z,102178.39
2018-12-13T19:57:55.611Z,102181.95
2018-12-13T20:00:25.911Z,102189.99
2018-12-13T20:02:55.640Z,102182.49
2018-12-13T20:05:26.544Z,102182.44
2018-12-13T20:07:58.006Z,102185.83
2018-12-13T20:10:28.645Z,102185.61
2018-12-13T20:12:58.471Z,102184.62
2018-12-13T20:15:28.966Z,102191.31
2018-12-13T20:17:59.530Z,102181.17
2018-12-13T20:20:29.503Z,102184.14
2018-12-13T20:22:59.067Z,102195.69
2018-12-13T20:25:28.891Z,102192.48
2018-12-13T20:27:58.375Z,102200.44
2018-12-13T20:30:29.058Z,102196.30
2018-12-13T20:32:58.639Z,102192.45
2018-12-13T20:35:31.424Z,102197.16
2018-12-13T20:38:00.889Z,102200.91
2018-12-13T20:40:30.821Z,102203.19
2018-12-13T20:43:00.476Z,102201.75
2018-12-13T20:45:29.937Z,102199.05
2018-12-13T20:48:00.425Z,102194.62
2018-12-13T20:50:30.522Z,102199.98
2018-12-13T20:53:00.029Z,102203.13
2018-12-13T20:55:29.529Z,102202.70
2018-12-13T20:57:59.489Z,102218.60
2018-12-13T21:00:29.192Z,102214.19
2018-12-13T21:03:00.391Z,102207.09
2018-12-13T21:05:30.636Z,102201.11
2018-12-13T21:08:05.828Z,102203.66
2018-12-13T21:10:35.436Z,102205.43
2018-12-13T21:13:04.861Z,102200.71
2018-12-13T21:15:34.439Z,102199.84
2018-12-13T21:18:04.005Z,102204.67
2018-12-13T21:20:33.506Z,102210.79
2018-12-13T21:23:03.056Z,102204.56
2018-12-13T21:25:32.522Z,102209.47
2018-12-13T21:28:01.960Z,102209.81
2018-12-13T21:30:31.409Z,102210.70
2018-12-13T21:33:00.770Z,102208.60
2018-12-13T21:35:30.193Z,102208.60
2018-12-13T21:37:59.608Z,102207.64
2018-12-13T21:43:38.510Z,102214.27
2018-12-13T21:46:09.880Z,102208.16
2018-12-13T21:48:39.830Z,102214.47
2018-12-13T21:51:10.503Z,102207.02
2018-12-13T21:53:40.542Z,102202.95
2018-12-13T21:56:11.645Z,102198.69
2018-12-13T21:58:48.262Z,102194.42
2018-12-13T22:01:18.126Z,102199.16
2018-12-13T22:03:47.827Z,102196.18
2018-12-13T22:06:17.926Z,102198.80
2018-12-13T22:08:47.696Z,102196.92
2018-12-13T22:11:20.055Z,102202.70
2018-12-13T22:13:49.808Z,102191.27
2018-12-13T22:16:19.929Z,102192.52
2018-12-13T22:18:50.567Z,102197.42
2018-12-13T22:21:21.547Z,102197.38
2018-12-13T22:23:56.302Z,102197.77
2018-12-13T22:26:26.940Z,102196.89
2018-12-13T22:28:57.986Z,102194.73
2018-12-13T22:31:29.017Z,102200.34
2018-12-13T22:34:02.253Z,102197.48
2018-12-13T22:36:32.374Z,102195.61
2018-12-13T22:39:06.879Z,102192.43
2018-12-13T22:41:41.418Z,102188.98
2018-12-13T22:44:17.096Z,102186.87
2018-12-13T22:46:48.274Z,102186.92
2018-12-13T22:49:19.059Z,102189.01
2018-12-13T22:52:05.361Z,102195.07
2018-12-13T22:54:35.292Z,102194.42
2018-12-13T22:57:05.277Z,102190.27
2018-12-13T22:59:35.133Z,102186.25
2018-12-13T23:02:08.906Z,102185.44
2018-12-13T23:04:39.251Z,102180.13
2018-12-13T23:07:09.804Z,102177.94
2018-12-13T23:09:42.334Z,102183.97
2018-12-13T23:12:12.553Z,102180.58
2018-12-13T23:14:45.731Z,102179.97
2018-12-13T23:17:16.791Z,102184.53
2018-12-13T23:19:50.304Z,102185.61
2018-12-13T23:22:21.338Z,102181.73
2018-12-13T23:24:51.404Z,102182.09
2018-12-13T23:27:23.571Z,102183.48
2018-12-13T23:29:54.084Z,102186.88
2018-12-13T23:32:24.449Z,102186.51
2018-12-13T23:34:55.482Z,102191.20
2018-12-13T23:37:25.261Z,102188.44
2018-12-13T23:43:09.642Z,102185.47
2018-12-13T23:45:41.806Z,102182.44
2018-12-13T23:48:11.531Z,102180.70
2018-12-13T23:50:47.374Z,102177.25
2018-12-13T23:53:17.403Z,102179.13
2018-12-13T23:55:46.921Z,102181.29
2018-12-13T23:58:16.383Z,102186.48
